Harry B. Settoon — WDE5658 — position and weather

sailwx.info

Track history (hours):
 
Tides and Currents Weather Stations Pressure Air Temp Water Temp Dewpoint Dewpoint Depression Visibility Wind Speed Wind Dir Waves Ship Positions

Harry B. Settoon

Owner: Settoon Towing, LLC, Houma, LA. More information available from US FCC via Universal Licensing System and Coast Guard Vessel Documentation Center.

Last reported at 2016-Dec-08 01:28 UTC. Time now 2016-Dec-10 06:56 UTC.
Position N 29°46' W 091°47'.

; draft 1.8 m.

Type: Tug. MMSI: 367369920.

Date/timePositionNaut miles runAvg speedWind from/ knotsBaromVisibWave heightAir tempDewpointWater temp
2016-Dec-08 01:28N 29°46' W 091°47'6 2.9
2016-Dec-07 23:22N 29°51' W 091°52'5 6.1
2016-Dec-07 22:33N 29°50' W 091°58'2 1.8
2016-Dec-07 21:33N 29°50' W 091°59'0 0.0
2016-Dec-07 20:33N 29°50' W 091°59'0 0.0
2016-Dec-07 19:33N 29°50' W 091°59'0 0.0
2016-Dec-07 18:33N 29°50' W 091°59'0 0.0
2016-Dec-07 17:33N 29°50' W 091°59'0 0.0
2016-Dec-07 16:33N 29°50' W 091°59'0 0.0
2016-Dec-07 15:34N 29°50' W 091°59'0 0.0
2016-Dec-07 14:33N 29°50' W 091°59'0 0.0
2016-Dec-07 13:33N 29°50' W 091°59'0 0.0
2016-Dec-07 12:33N 29°50' W 091°59'0 0.0
2016-Dec-07 11:33N 29°50' W 091°59'0 0.0
2016-Dec-07 10:33N 29°50' W 091°59'0 0.0
2016-Dec-07 09:33N 29°50' W 091°59'0 0.0
2016-Dec-07 08:33N 29°50' W 091°59'0 0.0
2016-Dec-07 07:33N 29°50' W 091°59'0 0.0
2016-Dec-07 06:33N 29°50' W 091°59'0 0.0
2016-Dec-07 05:33N 29°50' W 091°59'4 3.5
2016-Dec-07 04:32N 29°51' W 091°55'  
Track history (hours):
 
Tides and Currents Weather Stations Pressure Air Temp Water Temp Dewpoint Dewpoint Depression Visibility Wind Speed Wind Dir Waves Ship Positions

Harry B. Settoon

Owner: Settoon Towing, LLC, Houma, LA. More information available from US FCC via Universal Licensing System and Coast Guard Vessel Documentation Center.

Last reported at 2016-Dec-08 01:28 UTC. Time now 2016-Dec-10 06:56 UTC.
Position N 29°46' W 091°47'.

; draft 1.8 m.

Type: Tug. MMSI: 367369920.

Date/timePositionNaut miles runAvg speedWind from/ knotsBaromVisibWave heightAir tempDewpointWater temp
2016-Dec-08 01:28N 29°46' W 091°47'6 2.9
2016-Dec-07 23:22N 29°51' W 091°52'5 6.1
2016-Dec-07 22:33N 29°50' W 091°58'2 1.8
2016-Dec-07 21:33N 29°50' W 091°59'0 0.0
2016-Dec-07 20:33N 29°50' W 091°59'0 0.0
2016-Dec-07 19:33N 29°50' W 091°59'0 0.0
2016-Dec-07 18:33N 29°50' W 091°59'0 0.0
2016-Dec-07 17:33N 29°50' W 091°59'0 0.0
2016-Dec-07 16:33N 29°50' W 091°59'0 0.0
2016-Dec-07 15:34N 29°50' W 091°59'0 0.0
2016-Dec-07 14:33N 29°50' W 091°59'0 0.0
2016-Dec-07 13:33N 29°50' W 091°59'0 0.0
2016-Dec-07 12:33N 29°50' W 091°59'0 0.0
2016-Dec-07 11:33N 29°50' W 091°59'0 0.0
2016-Dec-07 10:33N 29°50' W 091°59'0 0.0
2016-Dec-07 09:33N 29°50' W 091°59'0 0.0
2016-Dec-07 08:33N 29°50' W 091°59'0 0.0
2016-Dec-07 07:33N 29°50' W 091°59'0 0.0
2016-Dec-07 06:33N 29°50' W 091°59'0 0.0
2016-Dec-07 05:33N 29°50' W 091°59'4 3.5
2016-Dec-07 04:32N 29°51' W 091°55'  

Dump ship's entire track history